createdAt,value
2023-04-23T00:02:42.660Z,97221.44
2023-04-23T00:06:47.262Z,97213.22
2023-04-23T00:10:49.756Z,97216.94
2023-04-23T00:14:52.225Z,97215.34
2023-04-23T00:18:54.315Z,97214.78
2023-04-23T00:22:56.393Z,97226.19
2023-04-23T00:26:58.464Z,97210.38
2023-04-23T00:31:00.602Z,97214.13
2023-04-23T00:35:02.708Z,97211.81
2023-04-23T00:39:04.842Z,97215.59
2023-04-23T00:43:07.373Z,97213.91
2023-04-23T00:47:10.266Z,97216.44
2023-04-23T00:51:13.592Z,97218.56
2023-04-23T00:55:16.201Z,97218.56
2023-04-23T00:59:18.442Z,97219.63
2023-04-23T01:03:22.056Z,97218.13
2023-04-23T01:07:24.524Z,97219.16
2023-04-23T01:11:27.088Z,97227.16
2023-04-23T01:15:29.116Z,97224.84
2023-04-23T01:19:31.987Z,97219.88
2023-04-23T01:23:34.058Z,97223.56
2023-04-23T01:27:36.462Z,97233.00
2023-04-23T01:31:38.628Z,97234.16
2023-04-23T01:35:41.293Z,97231.91
2023-04-23T01:39:43.379Z,97237.38
2023-04-23T01:43:45.978Z,97236.66
2023-04-23T01:47:48.369Z,97227.06
2023-04-23T01:51:50.521Z,97231.03
2023-04-23T01:55:54.925Z,97221.09
2023-04-23T02:00:08.108Z,97233.31
2023-04-23T02:04:15.245Z,97242.91
2023-04-23T02:08:17.558Z,97241.97
2023-04-23T02:12:19.604Z,97241.84
2023-04-23T02:16:21.721Z,97245.53
2023-04-23T02:20:23.909Z,97251.81
2023-04-23T02:24:26.021Z,97252.03
2023-04-23T02:28:28.243Z,97256.84
2023-04-23T02:32:31.103Z,97249.25
2023-04-23T02:36:33.325Z,97247.66
2023-04-23T02:40:36.158Z,97250.38
2023-04-23T02:44:38.174Z,97239.97
2023-04-23T02:48:41.483Z,97244.09
2023-04-23T02:52:43.743Z,97243.03
2023-04-23T02:56:46.382Z,97241.25
2023-04-23T03:00:48.823Z,97247.81
2023-04-23T03:04:51.728Z,97253.94
2023-04-23T03:08:53.773Z,97248.56
2023-04-23T03:12:56.492Z,97252.88
2023-04-23T03:16:59.944Z,97257.28
2023-04-23T03:21:02.510Z,97255.88
2023-04-23T03:25:05.163Z,97258.72
2023-04-23T03:29:07.599Z,97254.50
2023-04-23T03:33:09.914Z,97248.41
2023-04-23T03:37:13.326Z,97252.34
2023-04-23T03:41:16.384Z,97259.69
2023-04-23T03:45:19.098Z,97254.63
2023-04-23T03:49:21.677Z,97254.84
2023-04-23T03:53:23.704Z,97255.97
2023-04-23T03:57:54.583Z,97259.91
2023-04-23T04:01:59.747Z,97259.16
2023-04-23T04:06:02.494Z,97255.00
2023-04-23T04:10:06.300Z,97263.09
2023-04-23T04:14:08.381Z,97261.84
2023-04-23T04:18:10.631Z,97269.94
2023-04-23T04:22:12.752Z,97271.06
2023-04-23T04:26:15.339Z,97264.09
2023-04-23T04:30:17.456Z,97262.66
2023-04-23T04:34:20.241Z,97268.47
2023-04-23T04:38:22.376Z,97274.25
2023-04-23T04:42:25.461Z,97277.06
2023-04-23T04:46:29.100Z,97277.47
2023-04-23T04:50:31.390Z,97273.34
2023-04-23T04:54:33.441Z,97279.09
2023-04-23T04:58:35.656Z,97277.88
2023-04-23T05:02:37.876Z,97290.06
2023-04-23T05:06:40.082Z,97288.03
2023-04-23T05:10:45.888Z,97281.44
2023-04-23T05:14:47.939Z,97273.00
2023-04-23T05:18:50.093Z,97277.69
2023-04-23T05:22:52.242Z,97270.94
2023-04-23T05:26:54.962Z,97267.59
2023-04-23T05:30:57.361Z,97272.00
2023-04-23T05:35:02.885Z,97276.69
2023-04-23T05:39:04.893Z,97269.84
2023-04-23T05:43:06.941Z,97279.78
2023-04-23T05:47:10.927Z,97275.66
2023-04-23T05:51:13.446Z,97283.75
2023-04-23T05:55:20.439Z,97280.09
2023-04-23T05:59:23.150Z,97289.34
2023-04-23T06:03:26.668Z,97284.47
2023-04-23T06:07:28.839Z,97290.63
2023-04-23T06:11:36.056Z,97298.94
2023-04-23T06:15:38.406Z,97298.97
2023-04-23T06:19:41.512Z,97294.09
2023-04-23T06:23:43.559Z,97285.34
2023-04-23T06:27:45.687Z,97278.28
2023-04-23T06:31:58.973Z,97277.25
2023-04-23T06:36:01.082Z,97273.00
2023-04-23T06:40:03.434Z,97275.59
2023-04-23T06:44:06.107Z,97283.88
2023-04-23T06:48:11.400Z,97277.72
2023-04-23T06:52:13.494Z,97283.28
2023-04-23T06:56:15.549Z,97275.03
2023-04-23T07:00:17.909Z,97272.56
2023-04-23T07:04:21.656Z,97269.75
2023-04-23T07:08:23.744Z,97265.97
2023-04-23T07:12:25.791Z,97272.88
2023-04-23T07:16:32.066Z,97277.38
2023-04-23T07:20:34.296Z,97252.28
2023-04-23T07:24:36.347Z,97239.06
2023-04-23T07:28:38.391Z,97249.75
2023-04-23T07:32:40.629Z,97244.59
2023-04-23T07:36:42.777Z,97235.81
2023-04-23T07:40:44.948Z,97231.72
2023-04-23T07:44:47.016Z,97234.72
2023-04-23T07:48:49.205Z,97240.84
2023-04-23T07:52:51.965Z,97245.19
2023-04-23T07:56:54.004Z,97239.19
2023-04-23T08:00:56.058Z,97238.97
2023-04-23T08:04:58.172Z,97234.16
2023-04-23T08:09:00.551Z,97226.22
2023-04-23T08:13:03.162Z,97225.00
2023-04-23T08:17:05.266Z,97227.41
2023-04-23T08:21:07.631Z,97225.13
2023-04-23T08:25:10.056Z,97213.22
2023-04-23T08:29:12.145Z,97220.91
2023-04-23T08:33:14.641Z,97214.78
2023-04-23T08:37:29.676Z,97220.44
2023-04-23T08:41:39.597Z,97225.34
2023-04-23T08:45:45.870Z,97232.59
2023-04-23T08:49:50.677Z,97238.47
2023-04-23T08:53:58.168Z,97231.22
2023-04-23T08:58:01.408Z,97238.09
2023-04-23T09:02:08.322Z,97239.41
2023-04-23T09:06:10.952Z,97242.19
2023-04-23T09:10:16.908Z,97241.47
2023-04-23T09:14:22.552Z,97239.66
2023-04-23T09:18:24.804Z,97230.66
2023-04-23T09:22:46.752Z,97234.75
2023-04-23T09:26:51.831Z,97223.56
2023-04-23T09:30:53.872Z,97224.00
2023-04-23T09:34:59.139Z,97210.81
2023-04-23T09:39:01.171Z,97203.25
2023-04-23T09:43:04.649Z,97197.50
2023-04-23T09:47:10.070Z,97193.81
2023-04-23T09:51:15.112Z,97194.06
2023-04-23T09:55:28.333Z,97192.66
2023-04-23T10:03:36.256Z,97185.78
2023-04-23T10:07:39.832Z,97185.16
2023-04-23T10:11:42.768Z,97182.28
2023-04-23T10:15:47.275Z,97182.41
2023-04-23T10:19:50.679Z,97177.47
2023-04-23T10:23:52.894Z,97171.22
2023-04-23T10:27:56.271Z,97177.03
2023-04-23T10:32:03.885Z,97165.56
2023-04-23T10:36:06.781Z,97165.03
2023-04-23T10:40:18.782Z,97150.75
2023-04-23T10:44:44.944Z,97150.94
2023-04-23T10:49:06.949Z,97142.53
2023-04-23T10:53:18.573Z,97146.44
2023-04-23T10:57:20.861Z,97148.69
2023-04-23T11:01:27.953Z,97147.53
2023-04-23T11:05:30.008Z,97148.16
2023-04-23T11:09:34.835Z,97159.56
2023-04-23T11:13:52.749Z,97156.66
2023-04-23T11:17:54.818Z,97158.25
2023-04-23T11:22:04.413Z,97148.72
2023-04-23T11:26:06.534Z,97136.41
2023-04-23T11:30:13.756Z,97137.31
2023-04-23T11:34:17.389Z,97131.50
2023-04-23T11:38:21.460Z,97121.53
2023-04-23T11:42:23.477Z,97115.13
2023-04-23T11:46:26.065Z,97108.34
2023-04-23T11:50:33.516Z,97099.47
2023-04-23T11:54:36.034Z,97097.34
2023-04-23T11:58:39.412Z,97099.91
2023-04-23T12:02:55.804Z,97098.06
2023-04-23T12:06:59.051Z,97097.38
2023-04-23T12:11:03.127Z,97090.09
2023-04-23T12:15:07.156Z,97091.34
2023-04-23T12:19:10.667Z,97094.00
2023-04-23T12:23:12.700Z,97080.47
2023-04-23T12:27:20.359Z,97080.03
2023-04-23T12:31:24.620Z,97070.28
2023-04-23T12:35:43.581Z,97068.25
2023-04-23T12:39:45.891Z,97070.53
2023-04-23T12:43:50.221Z,97058.75
2023-04-23T12:47:53.728Z,97062.53
2023-04-23T12:52:02.682Z,97059.56
2023-04-23T12:56:04.950Z,97047.00
2023-04-23T13:00:08.892Z,97034.50
2023-04-23T13:04:11.145Z,97022.63
2023-04-23T13:08:13.292Z,97016.19
2023-04-23T13:12:15.368Z,97004.34
2023-04-23T13:16:17.821Z,96987.72
2023-04-23T13:20:19.931Z,96979.91
2023-04-23T13:24:21.997Z,96980.31
2023-04-23T13:28:24.052Z,96980.94
2023-04-23T13:32:28.326Z,96966.69
2023-04-23T13:36:30.503Z,96961.91
2023-04-23T13:40:32.635Z,96951.03
2023-04-23T13:44:34.646Z,96950.88
2023-04-23T13:48:36.704Z,96945.59
2023-04-23T13:52:39.797Z,96940.53
2023-04-23T13:56:41.884Z,96943.63
2023-04-23T14:00:44.051Z,96933.00
2023-04-23T14:04:46.068Z,96925.75
2023-04-23T14:08:48.127Z,96928.66
2023-04-23T14:12:51.366Z,96926.31
2023-04-23T14:16:53.377Z,96926.00
2023-04-23T14:20:55.446Z,96913.78
2023-04-23T14:25:02.392Z,96898.66
2023-04-23T14:29:11.220Z,96885.91
2023-04-23T14:33:13.276Z,96879.16
2023-04-23T14:37:17.191Z,96869.25
2023-04-23T14:41:19.219Z,96856.19
2023-04-23T14:45:21.474Z,96849.13
2023-04-23T14:49:24.384Z,96846.84
2023-04-23T14:53:27.157Z,96832.78
2023-04-23T14:57:29.260Z,96824.38
2023-04-23T15:01:31.462Z,96815.56
2023-04-23T15:05:33.545Z,96813.53
2023-04-23T15:09:35.591Z,96817.72
2023-04-23T15:13:49.270Z,96825.31
2023-04-23T15:17:51.891Z,96809.38
2023-04-23T15:21:53.974Z,96802.00
2023-04-23T15:25:56.136Z,96801.19
2023-04-23T15:29:58.148Z,96801.38
2023-04-23T15:34:00.278Z,96798.28
2023-04-23T15:38:02.367Z,96794.22
2023-04-23T15:42:05.689Z,96781.56
2023-04-23T15:46:07.809Z,96787.84
2023-04-23T15:50:10.768Z,96780.44
2023-04-23T15:54:12.992Z,96771.38
2023-04-23T15:58:14.993Z,96768.56
2023-04-23T16:02:17.938Z,96767.88
2023-04-23T16:06:20.038Z,96769.31
2023-04-23T16:10:22.131Z,96762.22
2023-04-23T16:14:24.205Z,96751.19
2023-04-23T16:18:26.289Z,96751.75
2023-04-23T16:22:28.334Z,96748.97
2023-04-23T16:26:30.586Z,96746.22
2023-04-23T16:30:32.696Z,96762.13
2023-04-23T16:34:34.693Z,96755.16
2023-04-23T16:38:36.714Z,96754.44
2023-04-23T16:42:39.171Z,96774.25
2023-04-23T16:46:41.388Z,96783.38
2023-04-23T16:50:44.263Z,96817.00
2023-04-23T16:54:49.196Z,96822.81
2023-04-23T16:58:51.472Z,96822.25
2023-04-23T17:02:53.641Z,96832.22
2023-04-23T17:06:55.701Z,96823.00
2023-04-23T17:10:57.734Z,96807.44
2023-04-23T17:14:59.734Z,96812.94
2023-04-23T17:19:01.891Z,96773.59
2023-04-23T17:23:03.987Z,96761.88
2023-04-23T17:27:06.310Z,96778.38
2023-04-23T17:31:08.869Z,96765.19
2023-04-23T17:35:11.220Z,96764.13
2023-04-23T17:39:13.336Z,96762.59
2023-04-23T17:43:16.435Z,96756.47
2023-04-23T17:47:18.472Z,96750.34
2023-04-23T17:51:21.479Z,96756.00
2023-04-23T17:55:24.187Z,96762.94
2023-04-23T17:59:26.220Z,96760.53
2023-04-23T18:03:30.064Z,96749.41
2023-04-23T18:07:32.251Z,96745.44
2023-04-23T18:11:34.324Z,96749.28
2023-04-23T18:15:36.372Z,96744.72
2023-04-23T18:19:38.479Z,96746.00
2023-04-23T18:23:40.610Z,96762.50
2023-04-23T18:27:42.667Z,96741.50
2023-04-23T18:31:44.709Z,96757.78
2023-04-23T18:35:52.395Z,96761.81
2023-04-23T18:39:54.526Z,96753.19
2023-04-23T18:43:57.101Z,96753.97
2023-04-23T18:48:27.937Z,96748.72
2023-04-23T18:52:29.925Z,96748.03
2023-04-23T18:56:32.043Z,96755.16
2023-04-23T19:00:34.504Z,96767.81
2023-04-23T19:04:36.723Z,96770.59
2023-04-23T19:08:38.994Z,96786.09
2023-04-23T19:12:40.975Z,96788.44
2023-04-23T19:16:42.994Z,96783.59
2023-04-23T19:20:45.040Z,96781.91
2023-04-23T19:24:47.286Z,96783.09
2023-04-23T19:28:49.316Z,96770.91
2023-04-23T19:32:51.405Z,96784.25
2023-04-23T19:36:53.661Z,96785.84
2023-04-23T19:40:56.844Z,96788.66
2023-04-23T19:44:58.857Z,96791.84
2023-04-23T19:49:00.911Z,96781.75
2023-04-23T19:53:05.663Z,96785.75
2023-04-23T19:57:07.725Z,96785.09
2023-04-23T20:01:10.628Z,96788.28
2023-04-23T20:05:12.688Z,96781.44
2023-04-23T20:09:21.856Z,96787.00
2023-04-23T20:13:23.992Z,96794.50
2023-04-23T20:17:26.981Z,96786.00
2023-04-23T20:21:29.042Z,96796.28
2023-04-23T20:25:31.961Z,96798.56
2023-04-23T20:29:34.065Z,96788.47
2023-04-23T20:33:36.059Z,96784.25
2023-04-23T20:37:38.553Z,96782.78
2023-04-23T20:41:40.942Z,96781.34
2023-04-23T20:45:43.154Z,96771.22
2023-04-23T20:49:45.510Z,96762.41
2023-04-23T20:53:47.917Z,96763.16
2023-04-23T20:57:50.183Z,96756.94
2023-04-23T21:01:52.687Z,96762.19
2023-04-23T21:05:54.780Z,96771.75
2023-04-23T21:09:57.019Z,96771.75
2023-04-23T21:14:00.902Z,96764.09
2023-04-23T21:18:04.069Z,96776.50
2023-04-23T21:22:06.143Z,96774.19
2023-04-23T21:26:08.286Z,96771.34
2023-04-23T21:30:23.653Z,96777.78
2023-04-23T21:34:25.774Z,96777.44
2023-04-23T21:38:27.769Z,96769.78
2023-04-23T21:42:29.835Z,96781.75
2023-04-23T21:46:32.189Z,96771.66
2023-04-23T21:50:34.417Z,96785.25
2023-04-23T21:54:36.468Z,96793.53
2023-04-23T21:58:38.468Z,96799.00
2023-04-23T22:02:42.107Z,96790.16
2023-04-23T22:06:46.450Z,96791.84
2023-04-23T22:10:48.747Z,96790.16
2023-04-23T22:14:50.912Z,96791.00
2023-04-23T22:18:53.553Z,96786.50
2023-04-23T22:22:56.112Z,96792.59
2023-04-23T22:26:58.998Z,96792.59
2023-04-23T22:31:01.390Z,96790.69
2023-04-23T22:35:04.626Z,96784.28
2023-04-23T22:39:07.008Z,96788.06
2023-04-23T22:43:09.025Z,96790.06
2023-04-23T22:47:11.913Z,96773.78
2023-04-23T22:51:14.430Z,96765.16
2023-04-23T22:55:16.446Z,96770.41
2023-04-23T22:59:19.105Z,96755.16
2023-04-23T23:03:21.603Z,96761.88
2023-04-23T23:07:23.738Z,96771.22
2023-04-23T23:11:28.641Z,96759.47
2023-04-23T23:15:30.749Z,96759.25
2023-04-23T23:19:32.773Z,96759.09
2023-04-23T23:23:34.930Z,96761.50
2023-04-23T23:27:37.111Z,96747.19
2023-04-23T23:31:39.164Z,96742.47
2023-04-23T23:35:42.612Z,96742.13
2023-04-23T23:39:45.663Z,96751.88
2023-04-23T23:43:47.620Z,96746.06
2023-04-23T23:47:49.646Z,96742.91
2023-04-23T23:51:51.745Z,96743.03
2023-04-23T23:55:53.729Z,96736.00
2023-04-23T23:59:56.145Z,96722.13
